<?xml version="1.0" encoding="UTF-8" standalone="no" ?>
<gpx xmlns="http://www.topografix.com/GPX/1/1" xmlns:xsi="http://www.w3.org/2001/XMLSchema-instance" xsi:schemaLocation="http://www.topografix.com/GPX/1/1 http://www.topografix.com/GPX/1/1/gpx.xsd" version="1.1" creator="VisuGPX - https://www.visugpx.com">
  <metadata>
    <name>ST GUYOMARD</name>
    <desc><![CDATA[garer prés de la mairie, boucle, bar en face de la mairie, aprés midi direction la boucle de Lizio de 7km]]></desc>
  </metadata>
  <trk>
    <name><![CDATA[ST GUYOMARD_1]]></name>
    <trkseg>
      <trkpt lat="47.78162" lon="-2.51197">
        <ele>-4</ele>
        <time>2012-03-30T07:36:51</time>
      </trkpt>
      <trkpt lat="47.78164" lon="-2.51206">
        <ele>-5</ele>
        <time>2012-03-30T07:37:21</time>
      </trkpt>
      <trkpt lat="47.78163" lon="-2.51206">
        <ele>-5</ele>
        <time>2012-03-30T07:37:51</time>
      </trkpt>
      <trkpt lat="47.78164" lon="-2.51209">
        <ele>-5</ele>
        <time>2012-03-30T07:38:22</time>
      </trkpt>
      <trkpt lat="47.7816" lon="-2.51203">
        <ele>-5</ele>
        <time>2012-03-30T07:38:52</time>
      </trkpt>
      <trkpt lat="47.78163" lon="-2.51202">
        <ele>-5</ele>
        <time>2012-03-30T07:39:22</time>
      </trkpt>
      <trkpt lat="47.78165" lon="-2.51202">
        <ele>-4</ele>
        <time>2012-03-30T07:39:52</time>
      </trkpt>
      <trkpt lat="47.7816" lon="-2.51201">
        <ele>-4</ele>
        <time>2012-03-30T07:40:22</time>
      </trkpt>
      <trkpt lat="47.78162" lon="-2.512">
        <ele>-5</ele>
        <time>2012-03-30T07:40:52</time>
      </trkpt>
      <trkpt lat="47.78161" lon="-2.51201">
        <ele>-5</ele>
        <time>2012-03-30T07:41:23</time>
      </trkpt>
      <trkpt lat="47.78159" lon="-2.512">
        <ele>-5</ele>
        <time>2012-03-30T07:41:53</time>
      </trkpt>
      <trkpt lat="47.7816" lon="-2.51201">
        <ele>-4</ele>
        <time>2012-03-30T07:42:23</time>
      </trkpt>
      <trkpt lat="47.78164" lon="-2.51198">
        <ele>-5</ele>
        <time>2012-03-30T07:42:53</time>
      </trkpt>
      <trkpt lat="47.7816" lon="-2.51199">
        <ele>-5</ele>
        <time>2012-03-30T07:43:23</time>
      </trkpt>
      <trkpt lat="47.78156" lon="-2.51203">
        <ele>-5</ele>
        <time>2012-03-30T07:43:53</time>
      </trkpt>
      <trkpt lat="47.78157" lon="-2.51207">
        <ele>-5</ele>
        <time>2012-03-30T07:44:24</time>
      </trkpt>
      <trkpt lat="47.78158" lon="-2.51207">
        <ele>-5</ele>
        <time>2012-03-30T07:44:54</time>
      </trkpt>
      <trkpt lat="47.7816" lon="-2.51206">
        <ele>-5</ele>
        <time>2012-03-30T07:45:24</time>
      </trkpt>
      <trkpt lat="47.78147" lon="-2.51174">
        <ele>-5</ele>
        <time>2012-03-30T07:45:54</time>
      </trkpt>
      <trkpt lat="47.7813" lon="-2.51143">
        <ele>-4</ele>
        <time>2012-03-30T07:46:24</time>
      </trkpt>
      <trkpt lat="47.7813" lon="-2.51096">
        <ele>-5</ele>
        <time>2012-03-30T07:46:54</time>
      </trkpt>
      <trkpt lat="47.78132" lon="-2.5104">
        <ele>-6</ele>
        <time>2012-03-30T07:47:24</time>
      </trkpt>
      <trkpt lat="47.78133" lon="-2.50985">
        <ele>-5</ele>
        <time>2012-03-30T07:47:55</time>
      </trkpt>
      <trkpt lat="47.78138" lon="-2.50928">
        <ele>-7</ele>
        <time>2012-03-30T07:48:25</time>
      </trkpt>
      <trkpt lat="47.78144" lon="-2.50874">
        <ele>-8</ele>
        <time>2012-03-30T07:48:55</time>
      </trkpt>
      <trkpt lat="47.78151" lon="-2.50827">
        <ele>-8</ele>
        <time>2012-03-30T07:49:25</time>
      </trkpt>
      <trkpt lat="47.78153" lon="-2.50776">
        <ele>-10</ele>
        <time>2012-03-30T07:49:56</time>
      </trkpt>
      <trkpt lat="47.78155" lon="-2.50724">
        <ele>-11</ele>
        <time>2012-03-30T07:50:26</time>
      </trkpt>
      <trkpt lat="47.78159" lon="-2.50672">
        <ele>-11</ele>
        <time>2012-03-30T07:50:56</time>
      </trkpt>
      <trkpt lat="47.78173" lon="-2.5062">
        <ele>-13</ele>
        <time>2012-03-30T07:51:26</time>
      </trkpt>
      <trkpt lat="47.78186" lon="-2.5057">
        <ele>-14</ele>
        <time>2012-03-30T07:51:56</time>
      </trkpt>
      <trkpt lat="47.78193" lon="-2.50522">
        <ele>-14</ele>
        <time>2012-03-30T07:52:27</time>
      </trkpt>
      <trkpt lat="47.78186" lon="-2.50462">
        <ele>-14</ele>
        <time>2012-03-30T07:52:57</time>
      </trkpt>
      <trkpt lat="47.78182" lon="-2.50401">
        <ele>-16</ele>
        <time>2012-03-30T07:53:27</time>
      </trkpt>
      <trkpt lat="47.78184" lon="-2.50355">
        <ele>-17</ele>
        <time>2012-03-30T07:53:57</time>
      </trkpt>
      <trkpt lat="47.78208" lon="-2.50338">
        <ele>-16</ele>
        <time>2012-03-30T07:54:27</time>
      </trkpt>
      <trkpt lat="47.78241" lon="-2.50322">
        <ele>-17</ele>
        <time>2012-03-30T07:54:58</time>
      </trkpt>
      <trkpt lat="47.78277" lon="-2.503">
        <ele>-20</ele>
        <time>2012-03-30T07:55:28</time>
      </trkpt>
      <trkpt lat="47.78312" lon="-2.50275">
        <ele>-20</ele>
        <time>2012-03-30T07:55:58</time>
      </trkpt>
      <trkpt lat="47.78347" lon="-2.50244">
        <ele>-21</ele>
        <time>2012-03-30T07:56:28</time>
      </trkpt>
      <trkpt lat="47.78376" lon="-2.50221">
        <ele>-20</ele>
        <time>2012-03-30T07:56:58</time>
      </trkpt>
      <trkpt lat="47.7841" lon="-2.50205">
        <ele>-19</ele>
        <time>2012-03-30T07:57:28</time>
      </trkpt>
      <trkpt lat="47.78445" lon="-2.50183">
        <ele>-20</ele>
        <time>2012-03-30T07:57:59</time>
      </trkpt>
      <trkpt lat="47.7848" lon="-2.50155">
        <ele>-21</ele>
        <time>2012-03-30T07:58:29</time>
      </trkpt>
      <trkpt lat="47.78514" lon="-2.50126">
        <ele>-21</ele>
        <time>2012-03-30T07:58:59</time>
      </trkpt>
      <trkpt lat="47.78531" lon="-2.50115">
        <ele>-22</ele>
        <time>2012-03-30T07:59:29</time>
      </trkpt>
      <trkpt lat="47.78538" lon="-2.50116">
        <ele>-22</ele>
        <time>2012-03-30T07:59:59</time>
      </trkpt>
      <trkpt lat="47.7854" lon="-2.50115">
        <ele>-22</ele>
        <time>2012-03-30T08:00:29</time>
      </trkpt>
      <trkpt lat="47.78539" lon="-2.50122">
        <ele>-22</ele>
        <time>2012-03-30T08:01:00</time>
      </trkpt>
      <trkpt lat="47.7854" lon="-2.50129">
        <ele>-23</ele>
        <time>2012-03-30T08:01:30</time>
      </trkpt>
      <trkpt lat="47.78542" lon="-2.50135">
        <ele>-22</ele>
        <time>2012-03-30T08:02:00</time>
      </trkpt>
      <trkpt lat="47.78544" lon="-2.5013">
        <ele>-23</ele>
        <time>2012-03-30T08:02:30</time>
      </trkpt>
      <trkpt lat="47.78538" lon="-2.50119">
        <ele>-23</ele>
        <time>2012-03-30T08:03:00</time>
      </trkpt>
      <trkpt lat="47.78532" lon="-2.50129">
        <ele>-23</ele>
        <time>2012-03-30T08:03:30</time>
      </trkpt>
      <trkpt lat="47.78536" lon="-2.50129">
        <ele>-22</ele>
        <time>2012-03-30T08:04:01</time>
      </trkpt>
      <trkpt lat="47.78553" lon="-2.50152">
        <ele>-22</ele>
        <time>2012-03-30T08:04:31</time>
      </trkpt>
      <trkpt lat="47.78582" lon="-2.50179">
        <ele>-23</ele>
        <time>2012-03-30T08:05:01</time>
      </trkpt>
      <trkpt lat="47.78612" lon="-2.5021">
        <ele>-20</ele>
        <time>2012-03-30T08:05:31</time>
      </trkpt>
      <trkpt lat="47.78642" lon="-2.50247">
        <ele>-20</ele>
        <time>2012-03-30T08:06:01</time>
      </trkpt>
      <trkpt lat="47.78672" lon="-2.50279">
        <ele>-18</ele>
        <time>2012-03-30T08:06:32</time>
      </trkpt>
      <trkpt lat="47.78703" lon="-2.50309">
        <ele>-16</ele>
        <time>2012-03-30T08:07:02</time>
      </trkpt>
      <trkpt lat="47.78728" lon="-2.50324">
        <ele>-14</ele>
        <time>2012-03-30T08:07:32</time>
      </trkpt>
      <trkpt lat="47.78757" lon="-2.50309">
        <ele>-16</ele>
        <time>2012-03-30T08:08:02</time>
      </trkpt>
      <trkpt lat="47.78788" lon="-2.50292">
        <ele>-16</ele>
        <time>2012-03-30T08:08:32</time>
      </trkpt>
      <trkpt lat="47.78816" lon="-2.50278">
        <ele>-18</ele>
        <time>2012-03-30T08:09:02</time>
      </trkpt>
      <trkpt lat="47.78844" lon="-2.50254">
        <ele>-22</ele>
        <time>2012-03-30T08:09:33</time>
      </trkpt>
      <trkpt lat="47.78874" lon="-2.50241">
        <ele>-28</ele>
        <time>2012-03-30T08:10:03</time>
      </trkpt>
      <trkpt lat="47.78886" lon="-2.50192">
        <ele>-32</ele>
        <time>2012-03-30T08:10:33</time>
      </trkpt>
      <trkpt lat="47.78891" lon="-2.50154">
        <ele>-34</ele>
        <time>2012-03-30T08:11:03</time>
      </trkpt>
      <trkpt lat="47.7889" lon="-2.50145">
        <ele>-35</ele>
        <time>2012-03-30T08:11:33</time>
      </trkpt>
      <trkpt lat="47.78891" lon="-2.50137">
        <ele>-34</ele>
        <time>2012-03-30T08:12:04</time>
      </trkpt>
      <trkpt lat="47.78889" lon="-2.50129">
        <ele>-34</ele>
        <time>2012-03-30T08:12:34</time>
      </trkpt>
      <trkpt lat="47.789" lon="-2.50133">
        <ele>-35</ele>
        <time>2012-03-30T08:13:04</time>
      </trkpt>
      <trkpt lat="47.78931" lon="-2.50167">
        <ele>-35</ele>
        <time>2012-03-30T08:13:34</time>
      </trkpt>
      <trkpt lat="47.78961" lon="-2.502">
        <ele>-37</ele>
        <time>2012-03-30T08:14:04</time>
      </trkpt>
      <trkpt lat="47.78981" lon="-2.50241">
        <ele>-41</ele>
        <time>2012-03-30T08:14:34</time>
      </trkpt>
      <trkpt lat="47.78989" lon="-2.50295">
        <ele>-42</ele>
        <time>2012-03-30T08:15:05</time>
      </trkpt>
      <trkpt lat="47.78998" lon="-2.5035">
        <ele>-42</ele>
        <time>2012-03-30T08:15:35</time>
      </trkpt>
      <trkpt lat="47.79002" lon="-2.50408">
        <ele>-40</ele>
        <time>2012-03-30T08:16:05</time>
      </trkpt>
      <trkpt lat="47.79004" lon="-2.5046">
        <ele>-40</ele>
        <time>2012-03-30T08:16:35</time>
      </trkpt>
      <trkpt lat="47.79013" lon="-2.5052">
        <ele>-38</ele>
        <time>2012-03-30T08:17:06</time>
      </trkpt>
      <trkpt lat="47.79022" lon="-2.50583">
        <ele>-38</ele>
        <time>2012-03-30T08:17:36</time>
      </trkpt>
      <trkpt lat="47.79019" lon="-2.5064">
        <ele>-36</ele>
        <time>2012-03-30T08:18:06</time>
      </trkpt>
      <trkpt lat="47.7902" lon="-2.50696">
        <ele>-37</ele>
        <time>2012-03-30T08:18:36</time>
      </trkpt>
      <trkpt lat="47.79026" lon="-2.50749">
        <ele>-36</ele>
        <time>2012-03-30T08:19:06</time>
      </trkpt>
      <trkpt lat="47.79029" lon="-2.508">
        <ele>-34</ele>
        <time>2012-03-30T08:19:36</time>
      </trkpt>
      <trkpt lat="47.79029" lon="-2.50859">
        <ele>-33</ele>
        <time>2012-03-30T08:20:06</time>
      </trkpt>
      <trkpt lat="47.79033" lon="-2.50917">
        <ele>-33</ele>
        <time>2012-03-30T08:20:37</time>
      </trkpt>
      <trkpt lat="47.79034" lon="-2.5097">
        <ele>-32</ele>
        <time>2012-03-30T08:21:07</time>
      </trkpt>
      <trkpt lat="47.79038" lon="-2.51025">
        <ele>-31</ele>
        <time>2012-03-30T08:21:37</time>
      </trkpt>
      <trkpt lat="47.79037" lon="-2.51082">
        <ele>-31</ele>
        <time>2012-03-30T08:22:07</time>
      </trkpt>
      <trkpt lat="47.79035" lon="-2.51137">
        <ele>-33</ele>
        <time>2012-03-30T08:22:37</time>
      </trkpt>
      <trkpt lat="47.79035" lon="-2.51189">
        <ele>-33</ele>
        <time>2012-03-30T08:23:08</time>
      </trkpt>
      <trkpt lat="47.79031" lon="-2.51233">
        <ele>-34</ele>
        <time>2012-03-30T08:23:38</time>
      </trkpt>
      <trkpt lat="47.79024" lon="-2.51291">
        <ele>-38</ele>
        <time>2012-03-30T08:24:08</time>
      </trkpt>
      <trkpt lat="47.79021" lon="-2.51351">
        <ele>-41</ele>
        <time>2012-03-30T08:24:38</time>
      </trkpt>
      <trkpt lat="47.7905" lon="-2.51371">
        <ele>-42</ele>
        <time>2012-03-30T08:25:09</time>
      </trkpt>
      <trkpt lat="47.79076" lon="-2.51394">
        <ele>-45</ele>
        <time>2012-03-30T08:25:39</time>
      </trkpt>
      <trkpt lat="47.79095" lon="-2.51399">
        <ele>-45</ele>
        <time>2012-03-30T08:26:09</time>
      </trkpt>
      <trkpt lat="47.791" lon="-2.51407">
        <ele>-47</ele>
        <time>2012-03-30T08:26:39</time>
      </trkpt>
      <trkpt lat="47.79087" lon="-2.51412">
        <ele>-48</ele>
        <time>2012-03-30T08:27:09</time>
      </trkpt>
      <trkpt lat="47.79077" lon="-2.51423">
        <ele>-49</ele>
        <time>2012-03-30T08:27:40</time>
      </trkpt>
      <trkpt lat="47.79079" lon="-2.51432">
        <ele>-50</ele>
        <time>2012-03-30T08:28:10</time>
      </trkpt>
      <trkpt lat="47.7908" lon="-2.51439">
        <ele>-49</ele>
        <time>2012-03-30T08:28:40</time>
      </trkpt>
      <trkpt lat="47.79082" lon="-2.51437">
        <ele>-50</ele>
        <time>2012-03-30T08:29:10</time>
      </trkpt>
      <trkpt lat="47.79078" lon="-2.5145">
        <ele>-50</ele>
        <time>2012-03-30T08:29:40</time>
      </trkpt>
      <trkpt lat="47.79083" lon="-2.51461">
        <ele>-52</ele>
        <time>2012-03-30T08:30:11</time>
      </trkpt>
      <trkpt lat="47.79079" lon="-2.51477">
        <ele>-52</ele>
        <time>2012-03-30T08:30:41</time>
      </trkpt>
      <trkpt lat="47.79071" lon="-2.51481">
        <ele>-52</ele>
        <time>2012-03-30T08:31:11</time>
      </trkpt>
      <trkpt lat="47.79074" lon="-2.51486">
        <ele>-51</ele>
        <time>2012-03-30T08:31:41</time>
      </trkpt>
      <trkpt lat="47.79077" lon="-2.51505">
        <ele>-48</ele>
        <time>2012-03-30T08:32:11</time>
      </trkpt>
      <trkpt lat="47.79069" lon="-2.51528">
        <ele>-48</ele>
        <time>2012-03-30T08:32:42</time>
      </trkpt>
      <trkpt lat="47.79068" lon="-2.5155">
        <ele>-47</ele>
        <time>2012-03-30T08:33:12</time>
      </trkpt>
      <trkpt lat="47.79073" lon="-2.51566">
        <ele>-47</ele>
        <time>2012-03-30T08:33:42</time>
      </trkpt>
      <trkpt lat="47.79073" lon="-2.51565">
        <ele>-47</ele>
        <time>2012-03-30T08:34:12</time>
      </trkpt>
      <trkpt lat="47.79084" lon="-2.51564">
        <ele>-46</ele>
        <time>2012-03-30T08:34:42</time>
      </trkpt>
      <trkpt lat="47.79089" lon="-2.51575">
        <ele>-45</ele>
        <time>2012-03-30T08:35:13</time>
      </trkpt>
      <trkpt lat="47.79095" lon="-2.51596">
        <ele>-45</ele>
        <time>2012-03-30T08:35:43</time>
      </trkpt>
      <trkpt lat="47.791" lon="-2.51622">
        <ele>-42</ele>
        <time>2012-03-30T08:36:13</time>
      </trkpt>
      <trkpt lat="47.7911" lon="-2.51636">
        <ele>-44</ele>
        <time>2012-03-30T08:36:43</time>
      </trkpt>
      <trkpt lat="47.79113" lon="-2.51641">
        <ele>-43</ele>
        <time>2012-03-30T08:37:13</time>
      </trkpt>
      <trkpt lat="47.79117" lon="-2.51642">
        <ele>-44</ele>
        <time>2012-03-30T08:37:43</time>
      </trkpt>
      <trkpt lat="47.79115" lon="-2.51641">
        <ele>-42</ele>
        <time>2012-03-30T08:38:14</time>
      </trkpt>
      <trkpt lat="47.7911" lon="-2.51633">
        <ele>-43</ele>
        <time>2012-03-30T08:38:44</time>
      </trkpt>
      <trkpt lat="47.79111" lon="-2.51629">
        <ele>-44</ele>
        <time>2012-03-30T08:39:14</time>
      </trkpt>
      <trkpt lat="47.79108" lon="-2.51627">
        <ele>-43</ele>
        <time>2012-03-30T08:39:44</time>
      </trkpt>
      <trkpt lat="47.79109" lon="-2.51644">
        <ele>-43</ele>
        <time>2012-03-30T08:40:14</time>
      </trkpt>
      <trkpt lat="47.79105" lon="-2.51655">
        <ele>-44</ele>
        <time>2012-03-30T08:40:45</time>
      </trkpt>
      <trkpt lat="47.79105" lon="-2.51666">
        <ele>-44</ele>
        <time>2012-03-30T08:41:15</time>
      </trkpt>
      <trkpt lat="47.7911" lon="-2.51679">
        <ele>-44</ele>
        <time>2012-03-30T08:41:45</time>
      </trkpt>
      <trkpt lat="47.79121" lon="-2.51684">
        <ele>-45</ele>
        <time>2012-03-30T08:42:15</time>
      </trkpt>
      <trkpt lat="47.79126" lon="-2.51706">
        <ele>-44</ele>
        <time>2012-03-30T08:42:46</time>
      </trkpt>
      <trkpt lat="47.79126" lon="-2.51732">
        <ele>-41</ele>
        <time>2012-03-30T08:43:16</time>
      </trkpt>
      <trkpt lat="47.79136" lon="-2.51736">
        <ele>-42</ele>
        <time>2012-03-30T08:43:46</time>
      </trkpt>
      <trkpt lat="47.79132" lon="-2.51729">
        <ele>-41</ele>
        <time>2012-03-30T08:44:16</time>
      </trkpt>
      <trkpt lat="47.79134" lon="-2.51733">
        <ele>-41</ele>
        <time>2012-03-30T08:44:46</time>
      </trkpt>
      <trkpt lat="47.79129" lon="-2.51731">
        <ele>-41</ele>
        <time>2012-03-30T08:45:16</time>
      </trkpt>
      <trkpt lat="47.79121" lon="-2.51766">
        <ele>-39</ele>
        <time>2012-03-30T08:45:47</time>
      </trkpt>
      <trkpt lat="47.7911" lon="-2.51808">
        <ele>-35</ele>
        <time>2012-03-30T08:46:17</time>
      </trkpt>
      <trkpt lat="47.79095" lon="-2.51846">
        <ele>-33</ele>
        <time>2012-03-30T08:46:47</time>
      </trkpt>
      <trkpt lat="47.79084" lon="-2.51887">
        <ele>-31</ele>
        <time>2012-03-30T08:47:17</time>
      </trkpt>
      <trkpt lat="47.79069" lon="-2.51929">
        <ele>-27</ele>
        <time>2012-03-30T08:47:47</time>
      </trkpt>
      <trkpt lat="47.79055" lon="-2.51972">
        <ele>-24</ele>
        <time>2012-03-30T08:48:18</time>
      </trkpt>
      <trkpt lat="47.7904" lon="-2.52012">
        <ele>-21</ele>
        <time>2012-03-30T08:48:48</time>
      </trkpt>
      <trkpt lat="47.79027" lon="-2.52054">
        <ele>-17</ele>
        <time>2012-03-30T08:49:18</time>
      </trkpt>
      <trkpt lat="47.79008" lon="-2.52089">
        <ele>-15</ele>
        <time>2012-03-30T08:49:48</time>
      </trkpt>
      <trkpt lat="47.78978" lon="-2.5211">
        <ele>-16</ele>
        <time>2012-03-30T08:50:18</time>
      </trkpt>
      <trkpt lat="47.78944" lon="-2.52121">
        <ele>-15</ele>
        <time>2012-03-30T08:50:48</time>
      </trkpt>
      <trkpt lat="47.78925" lon="-2.52135">
        <ele>-16</ele>
        <time>2012-03-30T08:51:19</time>
      </trkpt>
      <trkpt lat="47.78925" lon="-2.52145">
        <ele>-16</ele>
        <time>2012-03-30T08:51:49</time>
      </trkpt>
      <trkpt lat="47.78932" lon="-2.52168">
        <ele>-14</ele>
        <time>2012-03-30T08:52:19</time>
      </trkpt>
      <trkpt lat="47.78935" lon="-2.52206">
        <ele>-13</ele>
        <time>2012-03-30T08:52:49</time>
      </trkpt>
      <trkpt lat="47.78939" lon="-2.52256">
        <ele>-11</ele>
        <time>2012-03-30T08:53:19</time>
      </trkpt>
      <trkpt lat="47.78945" lon="-2.52304">
        <ele>-10</ele>
        <time>2012-03-30T08:53:49</time>
      </trkpt>
      <trkpt lat="47.78961" lon="-2.52336">
        <ele>-8</ele>
        <time>2012-03-30T08:54:20</time>
      </trkpt>
      <trkpt lat="47.78969" lon="-2.52378">
        <ele>-8</ele>
        <time>2012-03-30T08:54:50</time>
      </trkpt>
      <trkpt lat="47.78976" lon="-2.52414">
        <ele>-7</ele>
        <time>2012-03-30T08:55:20</time>
      </trkpt>
      <trkpt lat="47.78973" lon="-2.52453">
        <ele>-8</ele>
        <time>2012-03-30T08:55:50</time>
      </trkpt>
      <trkpt lat="47.78984" lon="-2.52484">
        <ele>-6</ele>
        <time>2012-03-30T08:56:20</time>
      </trkpt>
      <trkpt lat="47.79011" lon="-2.52476">
        <ele>-7</ele>
        <time>2012-03-30T08:56:51</time>
      </trkpt>
      <trkpt lat="47.79033" lon="-2.52499">
        <ele>-8</ele>
        <time>2012-03-30T08:57:21</time>
      </trkpt>
      <trkpt lat="47.7906" lon="-2.52509">
        <ele>-10</ele>
        <time>2012-03-30T08:57:51</time>
      </trkpt>
      <trkpt lat="47.79091" lon="-2.52525">
        <ele>-13</ele>
        <time>2012-03-30T08:58:21</time>
      </trkpt>
      <trkpt lat="47.79091" lon="-2.52574">
        <ele>-13</ele>
        <time>2012-03-30T08:58:51</time>
      </trkpt>
      <trkpt lat="47.79084" lon="-2.52625">
        <ele>-14</ele>
        <time>2012-03-30T08:59:22</time>
      </trkpt>
      <trkpt lat="47.79076" lon="-2.52677">
        <ele>-13</ele>
        <time>2012-03-30T08:59:52</time>
      </trkpt>
      <trkpt lat="47.79071" lon="-2.52731">
        <ele>-13</ele>
        <time>2012-03-30T09:00:22</time>
      </trkpt>
      <trkpt lat="47.79079" lon="-2.52781">
        <ele>-13</ele>
        <time>2012-03-30T09:00:52</time>
      </trkpt>
      <trkpt lat="47.791" lon="-2.52811">
        <ele>-13</ele>
        <time>2012-03-30T09:01:22</time>
      </trkpt>
      <trkpt lat="47.79124" lon="-2.52837">
        <ele>-14</ele>
        <time>2012-03-30T09:01:53</time>
      </trkpt>
      <trkpt lat="47.79138" lon="-2.52862">
        <ele>-15</ele>
        <time>2012-03-30T09:02:23</time>
      </trkpt>
      <trkpt lat="47.79153" lon="-2.52892">
        <ele>-15</ele>
        <time>2012-03-30T09:02:53</time>
      </trkpt>
      <trkpt lat="47.79171" lon="-2.52928">
        <ele>-17</ele>
        <time>2012-03-30T09:03:23</time>
      </trkpt>
      <trkpt lat="47.79196" lon="-2.52952">
        <ele>-21</ele>
        <time>2012-03-30T09:03:53</time>
      </trkpt>
      <trkpt lat="47.79228" lon="-2.52944">
        <ele>-26</ele>
        <time>2012-03-30T09:04:24</time>
      </trkpt>
      <trkpt lat="47.79257" lon="-2.52917">
        <ele>-32</ele>
        <time>2012-03-30T09:04:54</time>
      </trkpt>
      <trkpt lat="47.79277" lon="-2.52879">
        <ele>-36</ele>
        <time>2012-03-30T09:05:24</time>
      </trkpt>
      <trkpt lat="47.79292" lon="-2.52835">
        <ele>-39</ele>
        <time>2012-03-30T09:05:54</time>
      </trkpt>
      <trkpt lat="47.79313" lon="-2.52792">
        <ele>-43</ele>
        <time>2012-03-30T09:06:24</time>
      </trkpt>
      <trkpt lat="47.79342" lon="-2.52769">
        <ele>-47</ele>
        <time>2012-03-30T09:06:55</time>
      </trkpt>
      <trkpt lat="47.79372" lon="-2.52753">
        <ele>-51</ele>
        <time>2012-03-30T09:07:25</time>
      </trkpt>
      <trkpt lat="47.79399" lon="-2.5273">
        <ele>-56</ele>
        <time>2012-03-30T09:07:55</time>
      </trkpt>
      <trkpt lat="47.79417" lon="-2.527">
        <ele>-58</ele>
        <time>2012-03-30T09:08:25</time>
      </trkpt>
      <trkpt lat="47.79419" lon="-2.52654">
        <ele>-60</ele>
        <time>2012-03-30T09:08:56</time>
      </trkpt>
      <trkpt lat="47.79417" lon="-2.52611">
        <ele>-60</ele>
        <time>2012-03-30T09:09:26</time>
      </trkpt>
      <trkpt lat="47.79416" lon="-2.52591">
        <ele>-60</ele>
        <time>2012-03-30T09:09:56</time>
      </trkpt>
      <trkpt lat="47.79411" lon="-2.52579">
        <ele>-60</ele>
        <time>2012-03-30T09:10:26</time>
      </trkpt>
      <trkpt lat="47.79409" lon="-2.52577">
        <ele>-60</ele>
        <time>2012-03-30T09:10:56</time>
      </trkpt>
      <trkpt lat="47.79417" lon="-2.52604">
        <ele>-60</ele>
        <time>2012-03-30T09:11:26</time>
      </trkpt>
      <trkpt lat="47.79425" lon="-2.52642">
        <ele>-60</ele>
        <time>2012-03-30T09:11:57</time>
      </trkpt>
      <trkpt lat="47.79424" lon="-2.5269">
        <ele>-58</ele>
        <time>2012-03-30T09:12:27</time>
      </trkpt>
      <trkpt lat="47.79407" lon="-2.52727">
        <ele>-56</ele>
        <time>2012-03-30T09:12:57</time>
      </trkpt>
      <trkpt lat="47.7938" lon="-2.52757">
        <ele>-51</ele>
        <time>2012-03-30T09:13:27</time>
      </trkpt>
      <trkpt lat="47.79354" lon="-2.52773">
        <ele>-48</ele>
        <time>2012-03-30T09:13:58</time>
      </trkpt>
      <trkpt lat="47.79328" lon="-2.52789">
        <ele>-44</ele>
        <time>2012-03-30T09:14:28</time>
      </trkpt>
      <trkpt lat="47.79302" lon="-2.52818">
        <ele>-40</ele>
        <time>2012-03-30T09:14:58</time>
      </trkpt>
      <trkpt lat="47.79293" lon="-2.52857">
        <ele>-37</ele>
        <time>2012-03-30T09:15:28</time>
      </trkpt>
      <trkpt lat="47.79282" lon="-2.52895">
        <ele>-34</ele>
        <time>2012-03-30T09:15:58</time>
      </trkpt>
      <trkpt lat="47.79268" lon="-2.5293">
        <ele>-32</ele>
        <time>2012-03-30T09:16:29</time>
      </trkpt>
      <trkpt lat="47.79253" lon="-2.52963">
        <ele>-32</ele>
        <time>2012-03-30T09:16:59</time>
      </trkpt>
      <trkpt lat="47.79241" lon="-2.53007">
        <ele>-29</ele>
        <time>2012-03-30T09:17:29</time>
      </trkpt>
      <trkpt lat="47.79236" lon="-2.53051">
        <ele>-28</ele>
        <time>2012-03-30T09:17:59</time>
      </trkpt>
      <trkpt lat="47.79236" lon="-2.53077">
        <ele>-27</ele>
        <time>2012-03-30T09:18:29</time>
      </trkpt>
      <trkpt lat="47.79227" lon="-2.53084">
        <ele>-27</ele>
        <time>2012-03-30T09:19:00</time>
      </trkpt>
      <trkpt lat="47.79235" lon="-2.53085">
        <ele>-27</ele>
        <time>2012-03-30T09:19:30</time>
      </trkpt>
      <trkpt lat="47.79241" lon="-2.53105">
        <ele>-27</ele>
        <time>2012-03-30T09:20:00</time>
      </trkpt>
      <trkpt lat="47.79239" lon="-2.53147">
        <ele>-28</ele>
        <time>2012-03-30T09:20:30</time>
      </trkpt>
      <trkpt lat="47.7924" lon="-2.53192">
        <ele>-32</ele>
        <time>2012-03-30T09:21:01</time>
      </trkpt>
      <trkpt lat="47.79247" lon="-2.53231">
        <ele>-39</ele>
        <time>2012-03-30T09:21:31</time>
      </trkpt>
      <trkpt lat="47.79259" lon="-2.53267">
        <ele>-46</ele>
        <time>2012-03-30T09:22:01</time>
      </trkpt>
      <trkpt lat="47.79262" lon="-2.53305">
        <ele>-51</ele>
        <time>2012-03-30T09:22:31</time>
      </trkpt>
      <trkpt lat="47.79249" lon="-2.53336">
        <ele>-55</ele>
        <time>2012-03-30T09:23:01</time>
      </trkpt>
      <trkpt lat="47.79228" lon="-2.53369">
        <ele>-54</ele>
        <time>2012-03-30T09:23:32</time>
      </trkpt>
      <trkpt lat="47.79232" lon="-2.53385">
        <ele>-53</ele>
        <time>2012-03-30T09:24:02</time>
      </trkpt>
      <trkpt lat="47.79241" lon="-2.53387">
        <ele>-53</ele>
        <time>2012-03-30T09:24:32</time>
      </trkpt>
      <trkpt lat="47.7925" lon="-2.53383">
        <ele>-53</ele>
        <time>2012-03-30T09:25:02</time>
      </trkpt>
      <trkpt lat="47.79243" lon="-2.53377">
        <ele>-53</ele>
        <time>2012-03-30T09:25:32</time>
      </trkpt>
      <trkpt lat="47.79234" lon="-2.53368">
        <ele>-53</ele>
        <time>2012-03-30T09:26:02</time>
      </trkpt>
      <trkpt lat="47.79233" lon="-2.53382">
        <ele>-54</ele>
        <time>2012-03-30T09:26:32</time>
      </trkpt>
      <trkpt lat="47.79253" lon="-2.53374">
        <ele>-56</ele>
        <time>2012-03-30T09:27:03</time>
      </trkpt>
      <trkpt lat="47.79278" lon="-2.53361">
        <ele>-57</ele>
        <time>2012-03-30T09:27:33</time>
      </trkpt>
      <trkpt lat="47.79303" lon="-2.53348">
        <ele>-58</ele>
        <time>2012-03-30T09:28:03</time>
      </trkpt>
      <trkpt lat="47.79328" lon="-2.53339">
        <ele>-59</ele>
        <time>2012-03-30T09:28:33</time>
      </trkpt>
      <trkpt lat="47.79358" lon="-2.53333">
        <ele>-62</ele>
        <time>2012-03-30T09:29:03</time>
      </trkpt>
      <trkpt lat="47.79389" lon="-2.53307">
        <ele>-62</ele>
        <time>2012-03-30T09:29:34</time>
      </trkpt>
      <trkpt lat="47.79417" lon="-2.53274">
        <ele>-64</ele>
        <time>2012-03-30T09:30:04</time>
      </trkpt>
      <trkpt lat="47.79449" lon="-2.53258">
        <ele>-65</ele>
        <time>2012-03-30T09:30:34</time>
      </trkpt>
      <trkpt lat="47.79472" lon="-2.53223">
        <ele>-63</ele>
        <time>2012-03-30T09:31:04</time>
      </trkpt>
      <trkpt lat="47.79492" lon="-2.53208">
        <ele>-61</ele>
        <time>2012-03-30T09:31:34</time>
      </trkpt>
      <trkpt lat="47.79497" lon="-2.53231">
        <ele>-62</ele>
        <time>2012-03-30T09:32:05</time>
      </trkpt>
      <trkpt lat="47.79523" lon="-2.53239">
        <ele>-64</ele>
        <time>2012-03-30T09:32:35</time>
      </trkpt>
      <trkpt lat="47.79557" lon="-2.53249">
        <ele>-67</ele>
        <time>2012-03-30T09:33:05</time>
      </trkpt>
      <trkpt lat="47.79575" lon="-2.53277">
        <ele>-69</ele>
        <time>2012-03-30T09:33:35</time>
      </trkpt>
      <trkpt lat="47.79576" lon="-2.53312">
        <ele>-68</ele>
        <time>2012-03-30T09:34:05</time>
      </trkpt>
      <trkpt lat="47.79583" lon="-2.53342">
        <ele>-70</ele>
        <time>2012-03-30T09:34:36</time>
      </trkpt>
      <trkpt lat="47.79596" lon="-2.53369">
        <ele>-68</ele>
        <time>2012-03-30T09:35:06</time>
      </trkpt>
      <trkpt lat="47.79588" lon="-2.53412">
        <ele>-68</ele>
        <time>2012-03-30T09:35:36</time>
      </trkpt>
      <trkpt lat="47.79576" lon="-2.53462">
        <ele>-69</ele>
        <time>2012-03-30T09:36:06</time>
      </trkpt>
      <trkpt lat="47.79567" lon="-2.53477">
        <ele>-68</ele>
        <time>2012-03-30T09:36:36</time>
      </trkpt>
      <trkpt lat="47.79561" lon="-2.53493">
        <ele>-68</ele>
        <time>2012-03-30T09:37:07</time>
      </trkpt>
      <trkpt lat="47.79559" lon="-2.53526">
        <ele>-68</ele>
        <time>2012-03-30T09:37:37</time>
      </trkpt>
      <trkpt lat="47.79551" lon="-2.53564">
        <ele>-68</ele>
        <time>2012-03-30T09:38:07</time>
      </trkpt>
      <trkpt lat="47.79542" lon="-2.53604">
        <ele>-69</ele>
        <time>2012-03-30T09:38:37</time>
      </trkpt>
      <trkpt lat="47.79522" lon="-2.53644">
        <ele>-68</ele>
        <time>2012-03-30T09:39:07</time>
      </trkpt>
      <trkpt lat="47.795" lon="-2.53686">
        <ele>-66</ele>
        <time>2012-03-30T09:39:37</time>
      </trkpt>
      <trkpt lat="47.79492" lon="-2.53728">
        <ele>-67</ele>
        <time>2012-03-30T09:40:08</time>
      </trkpt>
      <trkpt lat="47.79476" lon="-2.53765">
        <ele>-65</ele>
        <time>2012-03-30T09:40:38</time>
      </trkpt>
      <trkpt lat="47.79461" lon="-2.53802">
        <ele>-59</ele>
        <time>2012-03-30T09:41:08</time>
      </trkpt>
      <trkpt lat="47.79439" lon="-2.53811">
        <ele>-55</ele>
        <time>2012-03-30T09:41:38</time>
      </trkpt>
      <trkpt lat="47.79422" lon="-2.53817">
        <ele>-53</ele>
        <time>2012-03-30T09:42:08</time>
      </trkpt>
      <trkpt lat="47.79416" lon="-2.53819">
        <ele>-53</ele>
        <time>2012-03-30T09:42:39</time>
      </trkpt>
      <trkpt lat="47.79414" lon="-2.5381">
        <ele>-53</ele>
        <time>2012-03-30T09:43:09</time>
      </trkpt>
      <trkpt lat="47.79427" lon="-2.53836">
        <ele>-55</ele>
        <time>2012-03-30T09:43:39</time>
      </trkpt>
      <trkpt lat="47.79433" lon="-2.53879">
        <ele>-59</ele>
        <time>2012-03-30T09:44:09</time>
      </trkpt>
      <trkpt lat="47.79427" lon="-2.53923">
        <ele>-59</ele>
        <time>2012-03-30T09:44:39</time>
      </trkpt>
      <trkpt lat="47.79414" lon="-2.53972">
        <ele>-61</ele>
        <time>2012-03-30T09:45:09</time>
      </trkpt>
      <trkpt lat="47.79407" lon="-2.54021">
        <ele>-63</ele>
        <time>2012-03-30T09:45:40</time>
      </trkpt>
      <trkpt lat="47.79397" lon="-2.54075">
        <ele>-66</ele>
        <time>2012-03-30T09:46:10</time>
      </trkpt>
      <trkpt lat="47.79381" lon="-2.54116">
        <ele>-66</ele>
        <time>2012-03-30T09:46:40</time>
      </trkpt>
      <trkpt lat="47.79368" lon="-2.54147">
        <ele>-66</ele>
        <time>2012-03-30T09:47:10</time>
      </trkpt>
      <trkpt lat="47.79356" lon="-2.54191">
        <ele>-68</ele>
        <time>2012-03-30T09:47:40</time>
      </trkpt>
      <trkpt lat="47.79345" lon="-2.5421">
        <ele>-67</ele>
        <time>2012-03-30T09:48:11</time>
      </trkpt>
      <trkpt lat="47.7933" lon="-2.54219">
        <ele>-63</ele>
        <time>2012-03-30T09:48:41</time>
      </trkpt>
      <trkpt lat="47.79298" lon="-2.54226">
        <ele>-62</ele>
        <time>2012-03-30T09:49:11</time>
      </trkpt>
      <trkpt lat="47.79271" lon="-2.54226">
        <ele>-55</ele>
        <time>2012-03-30T09:49:41</time>
      </trkpt>
      <trkpt lat="47.79248" lon="-2.54222">
        <ele>-52</ele>
        <time>2012-03-30T09:50:12</time>
      </trkpt>
      <trkpt lat="47.79215" lon="-2.54223">
        <ele>-49</ele>
        <time>2012-03-30T09:50:42</time>
      </trkpt>
      <trkpt lat="47.79198" lon="-2.54211">
        <ele>-47</ele>
        <time>2012-03-30T09:51:12</time>
      </trkpt>
      <trkpt lat="47.7918" lon="-2.54201">
        <ele>-43</ele>
        <time>2012-03-30T09:51:42</time>
      </trkpt>
      <trkpt lat="47.79166" lon="-2.54191">
        <ele>-41</ele>
        <time>2012-03-30T09:52:12</time>
      </trkpt>
      <trkpt lat="47.79166" lon="-2.54184">
        <ele>-41</ele>
        <time>2012-03-30T09:52:43</time>
      </trkpt>
      <trkpt lat="47.79165" lon="-2.54182">
        <ele>-40</ele>
        <time>2012-03-30T09:53:13</time>
      </trkpt>
      <trkpt lat="47.79159" lon="-2.54175">
        <ele>-41</ele>
        <time>2012-03-30T09:53:43</time>
      </trkpt>
      <trkpt lat="47.79145" lon="-2.54154">
        <ele>-39</ele>
        <time>2012-03-30T09:54:13</time>
      </trkpt>
      <trkpt lat="47.79119" lon="-2.54129">
        <ele>-37</ele>
        <time>2012-03-30T09:54:43</time>
      </trkpt>
      <trkpt lat="47.79091" lon="-2.54115">
        <ele>-37</ele>
        <time>2012-03-30T09:55:13</time>
      </trkpt>
      <trkpt lat="47.79058" lon="-2.54121">
        <ele>-35</ele>
        <time>2012-03-30T09:55:44</time>
      </trkpt>
      <trkpt lat="47.79025" lon="-2.54129">
        <ele>-33</ele>
        <time>2012-03-30T09:56:14</time>
      </trkpt>
      <trkpt lat="47.78998" lon="-2.54169">
        <ele>-29</ele>
        <time>2012-03-30T09:56:44</time>
      </trkpt>
      <trkpt lat="47.78991" lon="-2.54211">
        <ele>-29</ele>
        <time>2012-03-30T09:57:14</time>
      </trkpt>
      <trkpt lat="47.78997" lon="-2.5425">
        <ele>-28</ele>
        <time>2012-03-30T09:57:45</time>
      </trkpt>
      <trkpt lat="47.78974" lon="-2.54259">
        <ele>-25</ele>
        <time>2012-03-30T09:58:15</time>
      </trkpt>
      <trkpt lat="47.78965" lon="-2.54221">
        <ele>-21</ele>
        <time>2012-03-30T09:58:45</time>
      </trkpt>
      <trkpt lat="47.78968" lon="-2.54199">
        <ele>-20</ele>
        <time>2012-03-30T09:59:15</time>
      </trkpt>
      <trkpt lat="47.78972" lon="-2.54175">
        <ele>-19</ele>
        <time>2012-03-30T09:59:45</time>
      </trkpt>
      <trkpt lat="47.78973" lon="-2.54138">
        <ele>-19</ele>
        <time>2012-03-30T10:00:16</time>
      </trkpt>
      <trkpt lat="47.78963" lon="-2.54114">
        <ele>-18</ele>
        <time>2012-03-30T10:00:46</time>
      </trkpt>
      <trkpt lat="47.78939" lon="-2.54115">
        <ele>-17</ele>
        <time>2012-03-30T10:01:16</time>
      </trkpt>
      <trkpt lat="47.78923" lon="-2.54117">
        <ele>-15</ele>
        <time>2012-03-30T10:01:47</time>
      </trkpt>
      <trkpt lat="47.7889" lon="-2.5411">
        <ele>-15</ele>
        <time>2012-03-30T10:02:16</time>
      </trkpt>
      <trkpt lat="47.78855" lon="-2.54124">
        <ele>-13</ele>
        <time>2012-03-30T10:02:47</time>
      </trkpt>
      <trkpt lat="47.7882" lon="-2.54121">
        <ele>-13</ele>
        <time>2012-03-30T10:03:17</time>
      </trkpt>
      <trkpt lat="47.78818" lon="-2.5407">
        <ele>-13</ele>
        <time>2012-03-30T10:03:47</time>
      </trkpt>
      <trkpt lat="47.78813" lon="-2.54011">
        <ele>-13</ele>
        <time>2012-03-30T10:04:17</time>
      </trkpt>
      <trkpt lat="47.78805" lon="-2.53953">
        <ele>-13</ele>
        <time>2012-03-30T10:04:48</time>
      </trkpt>
      <trkpt lat="47.78806" lon="-2.53896">
        <ele>-13</ele>
        <time>2012-03-30T10:05:18</time>
      </trkpt>
      <trkpt lat="47.78811" lon="-2.5384">
        <ele>-13</ele>
        <time>2012-03-30T10:05:48</time>
      </trkpt>
      <trkpt lat="47.78819" lon="-2.53781">
        <ele>-12</ele>
        <time>2012-03-30T10:06:18</time>
      </trkpt>
      <trkpt lat="47.78823" lon="-2.53724">
        <ele>-13</ele>
        <time>2012-03-30T10:06:48</time>
      </trkpt>
      <trkpt lat="47.78807" lon="-2.53671">
        <ele>-14</ele>
        <time>2012-03-30T10:07:19</time>
      </trkpt>
      <trkpt lat="47.78789" lon="-2.53623">
        <ele>-14</ele>
        <time>2012-03-30T10:07:49</time>
      </trkpt>
      <trkpt lat="47.78769" lon="-2.53572">
        <ele>-15</ele>
        <time>2012-03-30T10:08:19</time>
      </trkpt>
      <trkpt lat="47.78749" lon="-2.53527">
        <ele>-16</ele>
        <time>2012-03-30T10:08:49</time>
      </trkpt>
      <trkpt lat="47.78731" lon="-2.53482">
        <ele>-16</ele>
        <time>2012-03-30T10:09:20</time>
      </trkpt>
      <trkpt lat="47.7872" lon="-2.53428">
        <ele>-18</ele>
        <time>2012-03-30T10:09:50</time>
      </trkpt>
      <trkpt lat="47.78711" lon="-2.53375">
        <ele>-19</ele>
        <time>2012-03-30T10:10:20</time>
      </trkpt>
      <trkpt lat="47.78693" lon="-2.53333">
        <ele>-22</ele>
        <time>2012-03-30T10:10:50</time>
      </trkpt>
      <trkpt lat="47.78664" lon="-2.53306">
        <ele>-23</ele>
        <time>2012-03-30T10:11:20</time>
      </trkpt>
      <trkpt lat="47.78639" lon="-2.53267">
        <ele>-26</ele>
        <time>2012-03-30T10:11:50</time>
      </trkpt>
      <trkpt lat="47.78611" lon="-2.53231">
        <ele>-25</ele>
        <time>2012-03-30T10:12:21</time>
      </trkpt>
      <trkpt lat="47.78584" lon="-2.53194">
        <ele>-21</ele>
        <time>2012-03-30T10:12:51</time>
      </trkpt>
      <trkpt lat="47.78561" lon="-2.53157">
        <ele>-18</ele>
        <time>2012-03-30T10:13:21</time>
      </trkpt>
      <trkpt lat="47.78531" lon="-2.53127">
        <ele>-17</ele>
        <time>2012-03-30T10:13:51</time>
      </trkpt>
      <trkpt lat="47.78496" lon="-2.531">
        <ele>-16</ele>
        <time>2012-03-30T10:14:21</time>
      </trkpt>
      <trkpt lat="47.78465" lon="-2.5307">
        <ele>-15</ele>
        <time>2012-03-30T10:14:52</time>
      </trkpt>
      <trkpt lat="47.78445" lon="-2.53021">
        <ele>-14</ele>
        <time>2012-03-30T10:15:22</time>
      </trkpt>
      <trkpt lat="47.78429" lon="-2.52969">
        <ele>-13</ele>
        <time>2012-03-30T10:15:52</time>
      </trkpt>
      <trkpt lat="47.7842" lon="-2.52924">
        <ele>-9</ele>
        <time>2012-03-30T10:16:22</time>
      </trkpt>
      <trkpt lat="47.78409" lon="-2.5287">
        <ele>-7</ele>
        <time>2012-03-30T10:16:52</time>
      </trkpt>
      <trkpt lat="47.78401" lon="-2.52824">
        <ele>-4</ele>
        <time>2012-03-30T10:17:22</time>
      </trkpt>
      <trkpt lat="47.78402" lon="-2.52768">
        <ele>-1</ele>
        <time>2012-03-30T10:17:53</time>
      </trkpt>
      <trkpt lat="47.78405" lon="-2.52715">
        <ele>92.6</ele>
        <time>2012-03-30T10:18:23</time>
      </trkpt>
      <trkpt lat="47.78408" lon="-2.52654">
        <ele>92.7</ele>
        <time>2012-03-30T10:18:53</time>
      </trkpt>
      <trkpt lat="47.78406" lon="-2.52604">
        <ele>92.6</ele>
        <time>2012-03-30T10:19:23</time>
      </trkpt>
      <trkpt lat="47.78392" lon="-2.52547">
        <ele>92.4</ele>
        <time>2012-03-30T10:19:54</time>
      </trkpt>
      <trkpt lat="47.78378" lon="-2.52495">
        <ele>93</ele>
        <time>2012-03-30T10:20:24</time>
      </trkpt>
      <trkpt lat="47.78365" lon="-2.52444">
        <ele>93.1</ele>
        <time>2012-03-30T10:20:54</time>
      </trkpt>
      <trkpt lat="47.78349" lon="-2.52388">
        <ele>92.6</ele>
        <time>2012-03-30T10:21:24</time>
      </trkpt>
      <trkpt lat="47.78334" lon="-2.52328">
        <ele>-1</ele>
        <time>2012-03-30T10:21:54</time>
      </trkpt>
      <trkpt lat="47.78323" lon="-2.5227">
        <ele>-3</ele>
        <time>2012-03-30T10:22:25</time>
      </trkpt>
      <trkpt lat="47.78313" lon="-2.52213">
        <ele>-3</ele>
        <time>2012-03-30T10:22:55</time>
      </trkpt>
      <trkpt lat="47.78304" lon="-2.52156">
        <ele>-5</ele>
        <time>2012-03-30T10:23:25</time>
      </trkpt>
      <trkpt lat="47.78296" lon="-2.52099">
        <ele>-6</ele>
        <time>2012-03-30T10:23:55</time>
      </trkpt>
      <trkpt lat="47.78286" lon="-2.52039">
        <ele>-7</ele>
        <time>2012-03-30T10:24:26</time>
      </trkpt>
      <trkpt lat="47.78273" lon="-2.51988">
        <ele>-8</ele>
        <time>2012-03-30T10:24:56</time>
      </trkpt>
      <trkpt lat="47.78254" lon="-2.51934">
        <ele>-7</ele>
        <time>2012-03-30T10:25:26</time>
      </trkpt>
      <trkpt lat="47.7824" lon="-2.51882">
        <ele>-7</ele>
        <time>2012-03-30T10:25:56</time>
      </trkpt>
      <trkpt lat="47.78222" lon="-2.51828">
        <ele>-7</ele>
        <time>2012-03-30T10:26:26</time>
      </trkpt>
      <trkpt lat="47.78208" lon="-2.51787">
        <ele>-7</ele>
        <time>2012-03-30T10:26:56</time>
      </trkpt>
      <trkpt lat="47.78221" lon="-2.51736">
        <ele>-9</ele>
        <time>2012-03-30T10:27:27</time>
      </trkpt>
      <trkpt lat="47.78238" lon="-2.51683">
        <ele>-10</ele>
        <time>2012-03-30T10:27:57</time>
      </trkpt>
      <trkpt lat="47.78236" lon="-2.51629">
        <ele>-12</ele>
        <time>2012-03-30T10:28:27</time>
      </trkpt>
      <trkpt lat="47.78226" lon="-2.5158">
        <ele>-11</ele>
        <time>2012-03-30T10:28:57</time>
      </trkpt>
      <trkpt lat="47.78211" lon="-2.51528">
        <ele>-8</ele>
        <time>2012-03-30T10:29:27</time>
      </trkpt>
      <trkpt lat="47.78193" lon="-2.51493">
        <ele>-7</ele>
        <time>2012-03-30T10:29:57</time>
      </trkpt>
      <trkpt lat="47.78171" lon="-2.51457">
        <ele>-4</ele>
        <time>2012-03-30T10:30:28</time>
      </trkpt>
      <trkpt lat="47.78146" lon="-2.51423">
        <ele>90</ele>
        <time>2012-03-30T10:30:58</time>
      </trkpt>
      <trkpt lat="47.78116" lon="-2.51396">
        <ele>1</ele>
        <time>2012-03-30T10:31:28</time>
      </trkpt>
      <trkpt lat="47.78086" lon="-2.51376">
        <ele>4</ele>
        <time>2012-03-30T10:31:59</time>
      </trkpt>
      <trkpt lat="47.78075" lon="-2.51337">
        <ele>6</ele>
        <time>2012-03-30T10:32:28</time>
      </trkpt>
      <trkpt lat="47.78082" lon="-2.51322">
        <ele>6</ele>
        <time>2012-03-30T10:32:59</time>
      </trkpt>
    </trkseg>
  </trk>
</gpx>